sensor_id;sensor_type;location;lat;lon;timestamp;P1;durP1;ratioP1;P2;durP2;ratioP2
78346;SDS011;67803;41.330;69.282;2023-08-30T00:01:35;16.33;;;6.95;;
78346;SDS011;67803;41.330;69.282;2023-08-30T00:04:05;18.75;;;7.78;;
78346;SDS011;67803;41.330;69.282;2023-08-30T00:06:36;15.27;;;6.60;;
78346;SDS011;67803;41.330;69.282;2023-08-30T00:09:07;20.48;;;7.40;;
78346;SDS011;67803;41.330;69.282;2023-08-30T00:11:39;28.27;;;7.25;;
78346;SDS011;67803;41.330;69.282;2023-08-30T00:14:10;16.85;;;6.20;;
78346;SDS011;67803;41.330;69.282;2023-08-30T00:16:41;17.40;;;6.57;;
78346;SDS011;67803;41.330;69.282;2023-08-30T00:19:12;15.88;;;6.22;;
78346;SDS011;67803;41.330;69.282;2023-08-30T00:21:42;19.15;;;7.10;;
78346;SDS011;67803;41.330;69.282;2023-08-30T00:24:14;16.38;;;6.45;;
78346;SDS011;67803;41.330;69.282;2023-08-30T00:26:45;21.73;;;6.25;;
78346;SDS011;67803;41.330;69.282;2023-08-30T00:29:16;18.60;;;5.95;;
78346;SDS011;67803;41.330;69.282;2023-08-30T00:31:47;18.15;;;6.00;;
78346;SDS011;67803;41.330;69.282;2023-08-30T00:34:18;18.25;;;5.90;;
78346;SDS011;67803;41.330;69.282;2023-08-30T00:36:49;16.45;;;5.68;;
78346;SDS011;67803;41.330;69.282;2023-08-30T00:39:20;18.30;;;6.03;;
78346;SDS011;67803;41.330;69.282;2023-08-30T00:41:51;13.13;;;5.40;;
78346;SDS011;67803;41.330;69.282;2023-08-30T00:44:22;16.17;;;5.75;;
78346;SDS011;67803;41.330;69.282;2023-08-30T00:46:53;13.38;;;5.45;;
78346;SDS011;67803;41.330;69.282;2023-08-30T00:49:24;14.52;;;5.75;;
78346;SDS011;67803;41.330;69.282;2023-08-30T00:51:55;14.63;;;5.72;;
78346;SDS011;67803;41.330;69.282;2023-08-30T00:54:27;17.42;;;6.07;;
78346;SDS011;67803;41.330;69.282;2023-08-30T00:56:58;16.65;;;5.82;;
78346;SDS011;67803;41.330;69.282;2023-08-30T00:59:31;18.23;;;5.80;;
78346;SDS011;67803;41.330;69.282;2023-08-30T01:02:03;17.08;;;5.70;;
78346;SDS011;67803;41.330;69.282;2023-08-30T01:04:34;19.88;;;6.00;;
78346;SDS011;67803;41.330;69.282;2023-08-30T01:07:06;19.48;;;6.82;;
78346;SDS011;67803;41.330;69.282;2023-08-30T01:09:38;19.95;;;6.63;;
78346;SDS011;67803;41.330;69.282;2023-08-30T01:12:11;23.30;;;6.47;;
78346;SDS011;67803;41.330;69.282;2023-08-30T01:14:56;18.95;;;6.53;;
78346;SDS011;67803;41.330;69.282;2023-08-30T01:17:28;18.40;;;6.18;;
78346;SDS011;67803;41.330;69.282;2023-08-30T01:20:00;21.77;;;6.50;;
78346;SDS011;67803;41.330;69.282;2023-08-30T01:25:31;16.92;;;6.45;;
78346;SDS011;67803;41.330;69.282;2023-08-30T01:28:04;17.98;;;6.97;;
78346;SDS011;67803;41.330;69.282;2023-08-30T01:30:36;22.60;;;7.03;;
78346;SDS011;67803;41.330;69.282;2023-08-30T01:33:08;19.45;;;7.05;;
78346;SDS011;67803;41.330;69.282;2023-08-30T01:35:39;22.92;;;7.32;;
78346;SDS011;67803;41.330;69.282;2023-08-30T01:38:11;16.15;;;7.03;;
78346;SDS011;67803;41.330;69.282;2023-08-30T01:40:43;22.63;;;6.57;;
78346;SDS011;67803;41.330;69.282;2023-08-30T01:43:14;18.92;;;6.40;;
78346;SDS011;67803;41.330;69.282;2023-08-30T01:45:46;21.75;;;6.85;;
78346;SDS011;67803;41.330;69.282;2023-08-30T01:48:17;19.65;;;7.55;;
78346;SDS011;67803;41.330;69.282;2023-08-30T01:50:49;26.70;;;7.32;;
78346;SDS011;67803;41.330;69.282;2023-08-30T01:53:20;17.50;;;7.15;;
78346;SDS011;67803;41.330;69.282;2023-08-30T01:55:51;25.92;;;7.78;;
78346;SDS011;67803;41.330;69.282;2023-08-30T01:58:23;20.70;;;7.90;;
78346;SDS011;67803;41.330;69.282;2023-08-30T02:00:54;21.35;;;7.38;;
78346;SDS011;67803;41.330;69.282;2023-08-30T02:03:25;23.67;;;8.55;;
78346;SDS011;67803;41.330;69.282;2023-08-30T02:06:06;25.10;;;9.32;;
78346;SDS011;67803;41.330;69.282;2023-08-30T02:08:45;24.23;;;7.35;;
78346;SDS011;67803;41.330;69.282;2023-08-30T02:11:22;19.95;;;7.10;;
78346;SDS011;67803;41.330;69.282;2023-08-30T02:13:54;21.98;;;7.10;;
78346;SDS011;67803;41.330;69.282;2023-08-30T02:16:27;23.23;;;7.50;;
78346;SDS011;67803;41.330;69.282;2023-08-30T02:18:59;22.40;;;7.93;;
78346;SDS011;67803;41.330;69.282;2023-08-30T02:21:30;22.25;;;8.30;;
78346;SDS011;67803;41.330;69.282;2023-08-30T02:24:01;19.00;;;6.97;;
78346;SDS011;67803;41.330;69.282;2023-08-30T02:26:32;19.85;;;7.03;;
78346;SDS011;67803;41.330;69.282;2023-08-30T02:29:04;22.83;;;8.20;;
78346;SDS011;67803;41.330;69.282;2023-08-30T02:31:35;22.70;;;8.13;;
78346;SDS011;67803;41.330;69.282;2023-08-30T02:34:06;23.58;;;7.53;;
78346;SDS011;67803;41.330;69.282;2023-08-30T02:36:37;22.42;;;8.50;;
78346;SDS011;67803;41.330;69.282;2023-08-30T02:39:07;23.73;;;8.73;;
78346;SDS011;67803;41.330;69.282;2023-08-30T02:41:39;26.15;;;8.82;;
78346;SDS011;67803;41.330;69.282;2023-08-30T02:44:13;26.60;;;8.48;;
78346;SDS011;67803;41.330;69.282;2023-08-30T02:46:44;25.67;;;9.55;;
78346;SDS011;67803;41.330;69.282;2023-08-30T02:49:15;28.00;;;8.70;;
78346;SDS011;67803;41.330;69.282;2023-08-30T02:51:46;24.60;;;8.90;;
78346;SDS011;67803;41.330;69.282;2023-08-30T02:54:18;30.27;;;8.57;;
78346;SDS011;67803;41.330;69.282;2023-08-30T02:56:49;24.67;;;7.95;;
78346;SDS011;67803;41.330;69.282;2023-08-30T02:59:20;23.42;;;8.27;;
78346;SDS011;67803;41.330;69.282;2023-08-30T03:01:52;29.17;;;8.57;;
78346;SDS011;67803;41.330;69.282;2023-08-30T03:04:23;20.05;;;8.30;;
78346;SDS011;67803;41.330;69.282;2023-08-30T03:06:54;29.15;;;8.88;;
78346;SDS011;67803;41.330;69.282;2023-08-30T03:09:25;25.00;;;7.80;;
78346;SDS011;67803;41.330;69.282;2023-08-30T03:11:56;22.80;;;7.72;;
78346;SDS011;67803;41.330;69.282;2023-08-30T03:14:27;27.42;;;8.38;;
78346;SDS011;67803;41.330;69.282;2023-08-30T03:16:58;27.65;;;8.15;;
78346;SDS011;67803;41.330;69.282;2023-08-30T03:19:29;23.88;;;8.55;;
78346;SDS011;67803;41.330;69.282;2023-08-30T03:22:00;31.55;;;9.70;;
78346;SDS011;67803;41.330;69.282;2023-08-30T03:24:31;30.73;;;8.55;;
78346;SDS011;67803;41.330;69.282;2023-08-30T03:27:02;30.05;;;8.52;;
78346;SDS011;67803;41.330;69.282;2023-08-30T03:29:33;49.80;;;10.98;;
78346;SDS011;67803;41.330;69.282;2023-08-30T03:32:04;29.10;;;8.98;;
78346;SDS011;67803;41.330;69.282;2023-08-30T03:34:35;32.38;;;9.82;;
78346;SDS011;67803;41.330;69.282;2023-08-30T03:37:06;33.15;;;9.07;;
78346;SDS011;67803;41.330;69.282;2023-08-30T03:39:37;27.58;;;8.32;;
78346;SDS011;67803;41.330;69.282;2023-08-30T03:42:08;28.50;;;7.97;;
78346;SDS011;67803;41.330;69.282;2023-08-30T03:44:40;26.50;;;8.10;;
78346;SDS011;67803;41.330;69.282;2023-08-30T03:47:11;26.83;;;7.97;;
78346;SDS011;67803;41.330;69.282;2023-08-30T03:49:43;22.90;;;7.43;;
78346;SDS011;67803;41.330;69.282;2023-08-30T03:52:14;28.35;;;8.70;;
78346;SDS011;67803;41.330;69.282;2023-08-30T03:54:45;28.48;;;7.68;;
78346;SDS011;67803;41.330;69.282;2023-08-30T03:57:16;26.60;;;8.05;;
78346;SDS011;67803;41.330;69.282;2023-08-30T03:59:47;26.38;;;7.68;;
78346;SDS011;67803;41.330;69.282;2023-08-30T04:02:18;27.95;;;8.45;;
78346;SDS011;67803;41.330;69.282;2023-08-30T04:04:49;37.67;;;11.18;;
78346;SDS011;67803;41.330;69.282;2023-08-30T04:07:20;40.80;;;13.13;;
78346;SDS011;67803;41.330;69.282;2023-08-30T04:09:51;34.78;;;11.43;;
78346;SDS011;67803;41.330;69.282;2023-08-30T04:12:22;31.80;;;9.80;;
78346;SDS011;67803;41.330;69.282;2023-08-30T04:14:53;28.42;;;9.05;;
78346;SDS011;67803;41.330;69.282;2023-08-30T04:17:24;33.05;;;9.50;;
78346;SDS011;67803;41.330;69.282;2023-08-30T04:19:55;25.88;;;9.55;;
78346;SDS011;67803;41.330;69.282;2023-08-30T04:22:27;21.85;;;8.20;;
78346;SDS011;67803;41.330;69.282;2023-08-30T04:24:58;26.58;;;8.43;;
78346;SDS011;67803;41.330;69.282;2023-08-30T04:27:29;28.17;;;7.82;;
78346;SDS011;67803;41.330;69.282;2023-08-30T04:30:00;27.38;;;8.15;;
78346;SDS011;67803;41.330;69.282;2023-08-30T04:32:31;23.27;;;8.13;;
78346;SDS011;67803;41.330;69.282;2023-08-30T04:35:02;26.02;;;8.30;;
78346;SDS011;67803;41.330;69.282;2023-08-30T04:37:34;24.33;;;7.65;;
78346;SDS011;67803;41.330;69.282;2023-08-30T04:40:08;28.20;;;8.63;;
78346;SDS011;67803;41.330;69.282;2023-08-30T04:42:42;24.58;;;8.63;;
78346;SDS011;67803;41.330;69.282;2023-08-30T04:45:13;26.08;;;10.45;;
78346;SDS011;67803;41.330;69.282;2023-08-30T04:47:45;26.25;;;10.13;;
78346;SDS011;67803;41.330;69.282;2023-08-30T04:50:16;25.50;;;9.32;;
78346;SDS011;67803;41.330;69.282;2023-08-30T04:52:47;23.20;;;8.20;;
78346;SDS011;67803;41.330;69.282;2023-08-30T04:55:18;23.27;;;8.82;;
78346;SDS011;67803;41.330;69.282;2023-08-30T04:57:49;22.50;;;8.35;;
78346;SDS011;67803;41.330;69.282;2023-08-30T05:00:20;22.70;;;8.75;;
78346;SDS011;67803;41.330;69.282;2023-08-30T05:02:52;29.75;;;8.55;;
78346;SDS011;67803;41.330;69.282;2023-08-30T05:05:22;29.58;;;8.48;;
78346;SDS011;67803;41.330;69.282;2023-08-30T05:07:53;28.42;;;8.40;;
78346;SDS011;67803;41.330;69.282;2023-08-30T05:10:25;28.90;;;8.95;;
78346;SDS011;67803;41.330;69.282;2023-08-30T05:12:56;25.92;;;8.38;;
78346;SDS011;67803;41.330;69.282;2023-08-30T05:15:27;29.10;;;9.75;;
78346;SDS011;67803;41.330;69.282;2023-08-30T05:17:58;34.65;;;9.05;;
78346;SDS011;67803;41.330;69.282;2023-08-30T05:20:29;25.98;;;9.05;;
78346;SDS011;67803;41.330;69.282;2023-08-30T05:23:00;27.23;;;8.65;;
78346;SDS011;67803;41.330;69.282;2023-08-30T05:25:31;29.65;;;9.02;;
78346;SDS011;67803;41.330;69.282;2023-08-30T05:28:02;31.88;;;8.77;;
78346;SDS011;67803;41.330;69.282;2023-08-30T05:30:33;29.52;;;8.50;;
78346;SDS011;67803;41.330;69.282;2023-08-30T05:33:05;24.58;;;7.25;;
78346;SDS011;67803;41.330;69.282;2023-08-30T05:35:37;22.77;;;7.22;;
78346;SDS011;67803;41.330;69.282;2023-08-30T05:38:08;24.73;;;7.82;;
78346;SDS011;67803;41.330;69.282;2023-08-30T05:40:39;17.85;;;6.50;;
78346;SDS011;67803;41.330;69.282;2023-08-30T05:45:44;21.17;;;7.43;;
78346;SDS011;67803;41.330;69.282;2023-08-30T05:48:15;21.88;;;7.13;;
78346;SDS011;67803;41.330;69.282;2023-08-30T05:50:46;25.77;;;8.13;;
78346;SDS011;67803;41.330;69.282;2023-08-30T05:53:17;24.05;;;7.82;;
78346;SDS011;67803;41.330;69.282;2023-08-30T05:55:48;27.35;;;8.93;;
78346;SDS011;67803;41.330;69.282;2023-08-30T05:58:19;27.45;;;8.05;;
78346;SDS011;67803;41.330;69.282;2023-08-30T06:00:50;22.30;;;7.53;;
78346;SDS011;67803;41.330;69.282;2023-08-30T06:03:21;28.15;;;8.45;;
78346;SDS011;67803;41.330;69.282;2023-08-30T06:05:52;23.95;;;8.52;;
78346;SDS011;67803;41.330;69.282;2023-08-30T06:08:24;33.80;;;9.60;;
78346;SDS011;67803;41.330;69.282;2023-08-30T06:10:55;25.65;;;8.50;;
78346;SDS011;67803;41.330;69.282;2023-08-30T06:13:26;28.08;;;9.30;;
78346;SDS011;67803;41.330;69.282;2023-08-30T06:15:57;24.73;;;9.07;;
78346;SDS011;67803;41.330;69.282;2023-08-30T06:18:31;33.35;;;10.05;;
78346;SDS011;67803;41.330;69.282;2023-08-30T06:21:02;30.33;;;9.93;;
78346;SDS011;67803;41.330;69.282;2023-08-30T06:23:37;29.70;;;10.52;;
78346;SDS011;67803;41.330;69.282;2023-08-30T06:26:08;29.63;;;9.90;;
78346;SDS011;67803;41.330;69.282;2023-08-30T06:28:39;32.63;;;10.93;;
78346;SDS011;67803;41.330;69.282;2023-08-30T06:31:10;31.35;;;11.02;;
78346;SDS011;67803;41.330;69.282;2023-08-30T06:33:41;31.98;;;9.73;;
78346;SDS011;67803;41.330;69.282;2023-08-30T06:36:13;30.00;;;9.25;;
78346;SDS011;67803;41.330;69.282;2023-08-30T06:38:46;25.70;;;6.97;;
78346;SDS011;67803;41.330;69.282;2023-08-30T06:41:18;30.13;;;7.13;;
78346;SDS011;67803;41.330;69.282;2023-08-30T06:43:50;19.45;;;6.72;;
78346;SDS011;67803;41.330;69.282;2023-08-30T06:46:21;18.73;;;5.95;;
78346;SDS011;67803;41.330;69.282;2023-08-30T06:48:52;17.50;;;5.25;;
78346;SDS011;67803;41.330;69.282;2023-08-30T06:51:23;19.65;;;5.90;;
78346;SDS011;67803;41.330;69.282;2023-08-30T06:53:54;13.32;;;4.30;;
78346;SDS011;67803;41.330;69.282;2023-08-30T06:56:26;19.08;;;4.97;;
78346;SDS011;67803;41.330;69.282;2023-08-30T06:58:57;14.70;;;4.00;;
78346;SDS011;67803;41.330;69.282;2023-08-30T07:01:29;13.32;;;3.80;;
78346;SDS011;67803;41.330;69.282;2023-08-30T07:04:01;14.02;;;4.22;;
78346;SDS011;67803;41.330;69.282;2023-08-30T07:06:34;17.83;;;4.82;;
78346;SDS011;67803;41.330;69.282;2023-08-30T07:09:05;14.18;;;4.30;;
78346;SDS011;67803;41.330;69.282;2023-08-30T07:11:37;15.70;;;4.25;;
78346;SDS011;67803;41.330;69.282;2023-08-30T07:14:08;15.88;;;4.72;;
78346;SDS011;67803;41.330;69.282;2023-08-30T07:16:39;11.48;;;3.70;;
78346;SDS011;67803;41.330;69.282;2023-08-30T07:19:10;12.95;;;4.50;;
78346;SDS011;67803;41.330;69.282;2023-08-30T07:21:41;12.25;;;4.43;;
78346;SDS011;67803;41.330;69.282;2023-08-30T07:24:12;14.82;;;4.45;;
78346;SDS011;67803;41.330;69.282;2023-08-30T07:26:43;14.77;;;4.22;;
78346;SDS011;67803;41.330;69.282;2023-08-30T07:29:14;20.55;;;5.18;;
78346;SDS011;67803;41.330;69.282;2023-08-30T07:31:45;12.10;;;4.55;;
78346;SDS011;67803;41.330;69.282;2023-08-30T07:34:17;14.75;;;3.92;;
78346;SDS011;67803;41.330;69.282;2023-08-30T07:36:48;16.38;;;4.65;;
78346;SDS011;67803;41.330;69.282;2023-08-30T07:39:18;19.58;;;4.80;;
78346;SDS011;67803;41.330;69.282;2023-08-30T07:41:50;13.00;;;4.28;;
78346;SDS011;67803;41.330;69.282;2023-08-30T07:44:20;16.52;;;4.05;;
78346;SDS011;67803;41.330;69.282;2023-08-30T07:46:52;17.42;;;4.53;;
78346;SDS011;67803;41.330;69.282;2023-08-30T07:49:23;15.00;;;4.90;;
78346;SDS011;67803;41.330;69.282;2023-08-30T07:51:54;14.95;;;4.43;;
78346;SDS011;67803;41.330;69.282;2023-08-30T07:54:25;13.82;;;4.00;;
78346;SDS011;67803;41.330;69.282;2023-08-30T07:56:56;13.23;;;5.40;;
78346;SDS011;67803;41.330;69.282;2023-08-30T07:59:27;15.23;;;4.60;;
78346;SDS011;67803;41.330;69.282;2023-08-30T08:01:58;20.00;;;5.22;;
78346;SDS011;67803;41.330;69.282;2023-08-30T08:04:29;18.08;;;5.10;;
78346;SDS011;67803;41.330;69.282;2023-08-30T08:07:00;12.32;;;4.88;;
78346;SDS011;67803;41.330;69.282;2023-08-30T08:09:31;16.95;;;4.75;;
78346;SDS011;67803;41.330;69.282;2023-08-30T08:12:04;16.70;;;5.50;;
78346;SDS011;67803;41.330;69.282;2023-08-30T08:14:35;14.18;;;5.55;;
78346;SDS011;67803;41.330;69.282;2023-08-30T08:17:06;15.75;;;5.53;;
78346;SDS011;67803;41.330;69.282;2023-08-30T08:19:37;20.98;;;5.75;;
78346;SDS011;67803;41.330;69.282;2023-08-30T08:22:11;14.20;;;5.50;;
78346;SDS011;67803;41.330;69.282;2023-08-30T08:24:42;12.52;;;5.78;;
78346;SDS011;67803;41.330;69.282;2023-08-30T08:27:16;15.18;;;5.70;;
78346;SDS011;67803;41.330;69.282;2023-08-30T08:29:48;14.00;;;6.32;;
78346;SDS011;67803;41.330;69.282;2023-08-30T08:32:19;15.30;;;5.65;;
78346;SDS011;67803;41.330;69.282;2023-08-30T08:34:51;15.13;;;5.63;;
78346;SDS011;67803;41.330;69.282;2023-08-30T08:37:22;12.30;;;5.47;;
78346;SDS011;67803;41.330;69.282;2023-08-30T08:39:53;12.95;;;5.22;;
78346;SDS011;67803;41.330;69.282;2023-08-30T08:42:24;16.70;;;6.05;;
78346;SDS011;67803;41.330;69.282;2023-08-30T08:44:55;12.30;;;5.13;;
78346;SDS011;67803;41.330;69.282;2023-08-30T08:47:27;13.02;;;5.20;;
78346;SDS011;67803;41.330;69.282;2023-08-30T08:50:00;15.88;;;4.80;;
78346;SDS011;67803;41.330;69.282;2023-08-30T08:52:35;12.18;;;4.43;;
78346;SDS011;67803;41.330;69.282;2023-08-30T08:55:06;18.33;;;4.53;;
78346;SDS011;67803;41.330;69.282;2023-08-30T08:57:37;12.70;;;4.53;;
78346;SDS011;67803;41.330;69.282;2023-08-30T09:00:09;13.15;;;4.15;;
78346;SDS011;67803;41.330;69.282;2023-08-30T09:02:40;13.82;;;3.78;;
78346;SDS011;67803;41.330;69.282;2023-08-30T09:05:12;13.68;;;4.03;;
78346;SDS011;67803;41.330;69.282;2023-08-30T09:07:43;10.45;;;4.07;;
78346;SDS011;67803;41.330;69.282;2023-08-30T09:10:15;11.70;;;4.00;;
78346;SDS011;67803;41.330;69.282;2023-08-30T09:12:46;10.43;;;4.13;;
78346;SDS011;67803;41.330;69.282;2023-08-30T09:15:18;12.27;;;5.00;;
78346;SDS011;67803;41.330;69.282;2023-08-30T09:17:49;10.07;;;3.65;;
78346;SDS011;67803;41.330;69.282;2023-08-30T09:20:20;10.95;;;4.30;;
78346;SDS011;67803;41.330;69.282;2023-08-30T09:22:51;9.90;;;4.18;;
78346;SDS011;67803;41.330;69.282;2023-08-30T09:25:25;13.68;;;4.35;;
78346;SDS011;67803;41.330;69.282;2023-08-30T09:27:57;10.52;;;4.07;;
78346;SDS011;67803;41.330;69.282;2023-08-30T09:30:30;8.95;;;3.83;;
78346;SDS011;67803;41.330;69.282;2023-08-30T09:33:02;10.55;;;4.03;;
78346;SDS011;67803;41.330;69.282;2023-08-30T09:35:39;11.43;;;3.78;;
78346;SDS011;67803;41.330;69.282;2023-08-30T09:38:17;13.48;;;4.32;;
78346;SDS011;67803;41.330;69.282;2023-08-30T09:40:48;9.77;;;3.47;;
78346;SDS011;67803;41.330;69.282;2023-08-30T09:43:20;13.30;;;3.75;;
78346;SDS011;67803;41.330;69.282;2023-08-30T09:45:54;7.47;;;3.45;;
78346;SDS011;67803;41.330;69.282;2023-08-30T09:48:28;8.02;;;3.20;;
78346;SDS011;67803;41.330;69.282;2023-08-30T09:50:59;9.57;;;3.72;;
78346;SDS011;67803;41.330;69.282;2023-08-30T09:53:34;11.35;;;4.18;;
78346;SDS011;67803;41.330;69.282;2023-08-30T09:56:08;9.77;;;3.90;;
78346;SDS011;67803;41.330;69.282;2023-08-30T09:58:41;14.13;;;5.22;;
78346;SDS011;67803;41.330;69.282;2023-08-30T10:01:12;12.45;;;4.45;;
78346;SDS011;67803;41.330;69.282;2023-08-30T10:03:44;13.25;;;4.85;;
78346;SDS011;67803;41.330;69.282;2023-08-30T10:06:15;10.77;;;5.03;;
78346;SDS011;67803;41.330;69.282;2023-08-30T10:08:47;12.10;;;4.97;;
78346;SDS011;67803;41.330;69.282;2023-08-30T10:11:23;16.20;;;5.45;;
78346;SDS011;67803;41.330;69.282;2023-08-30T10:13:55;11.85;;;4.95;;
78346;SDS011;67803;41.330;69.282;2023-08-30T10:16:26;13.27;;;4.22;;
78346;SDS011;67803;41.330;69.282;2023-08-30T10:19:02;10.45;;;4.32;;
78346;SDS011;67803;41.330;69.282;2023-08-30T10:21:35;10.63;;;4.30;;
78346;SDS011;67803;41.330;69.282;2023-08-30T10:24:08;11.88;;;4.43;;
78346;SDS011;67803;41.330;69.282;2023-08-30T10:26:40;14.88;;;4.95;;
78346;SDS011;67803;41.330;69.282;2023-08-30T10:29:14;14.15;;;5.47;;
78346;SDS011;67803;41.330;69.282;2023-08-30T10:31:46;13.10;;;5.25;;
78346;SDS011;67803;41.330;69.282;2023-08-30T10:34:17;11.90;;;4.93;;
78346;SDS011;67803;41.330;69.282;2023-08-30T10:36:59;11.27;;;4.28;;
78346;SDS011;67803;41.330;69.282;2023-08-30T10:39:34;12.20;;;3.80;;
78346;SDS011;67803;41.330;69.282;2023-08-30T10:42:14;8.23;;;4.50;;
78346;SDS011;67803;41.330;69.282;2023-08-30T10:44:56;8.57;;;3.67;;
78346;SDS011;67803;41.330;69.282;2023-08-30T10:47:28;9.77;;;3.63;;
78346;SDS011;67803;41.330;69.282;2023-08-30T10:50:00;9.00;;;3.85;;
78346;SDS011;67803;41.330;69.282;2023-08-30T10:52:35;9.65;;;3.75;;
78346;SDS011;67803;41.330;69.282;2023-08-30T10:57:41;12.52;;;4.18;;
78346;SDS011;67803;41.330;69.282;2023-08-30T11:02:49;15.18;;;3.90;;
78346;SDS011;67803;41.330;69.282;2023-08-30T11:05:21;11.25;;;3.55;;
78346;SDS011;67803;41.330;69.282;2023-08-30T11:07:53;9.07;;;3.90;;
78346;SDS011;67803;41.330;69.282;2023-08-30T11:10:24;10.80;;;4.18;;
78346;SDS011;67803;41.330;69.282;2023-08-30T11:12:56;14.60;;;4.00;;
78346;SDS011;67803;41.330;69.282;2023-08-30T11:15:27;12.23;;;4.13;;
78346;SDS011;67803;41.330;69.282;2023-08-30T11:18:04;16.33;;;3.85;;
78346;SDS011;67803;41.330;69.282;2023-08-30T11:20:36;12.23;;;4.40;;
78346;SDS011;67803;41.330;69.282;2023-08-30T11:23:11;12.05;;;3.95;;
78346;SDS011;67803;41.330;69.282;2023-08-30T11:25:49;9.48;;;3.67;;
78346;SDS011;67803;41.330;69.282;2023-08-30T11:28:23;10.05;;;3.63;;
78346;SDS011;67803;41.330;69.282;2023-08-30T11:30:54;9.00;;;3.33;;
78346;SDS011;67803;41.330;69.282;2023-08-30T11:33:26;9.80;;;3.67;;
78346;SDS011;67803;41.330;69.282;2023-08-30T11:35:57;7.85;;;3.97;;
78346;SDS011;67803;41.330;69.282;2023-08-30T11:38:28;11.25;;;3.45;;
78346;SDS011;67803;41.330;69.282;2023-08-30T11:40:59;11.02;;;3.75;;
78346;SDS011;67803;41.330;69.282;2023-08-30T11:43:31;10.05;;;3.95;;
78346;SDS011;67803;41.330;69.282;2023-08-30T11:46:03;16.58;;;3.97;;
78346;SDS011;67803;41.330;69.282;2023-08-30T11:48:35;19.30;;;4.90;;
78346;SDS011;67803;41.330;69.282;2023-08-30T11:51:07;14.55;;;4.03;;
78346;SDS011;67803;41.330;69.282;2023-08-30T11:53:38;13.27;;;3.50;;
78346;SDS011;67803;41.330;69.282;2023-08-30T11:56:09;16.58;;;4.18;;
78346;SDS011;67803;41.330;69.282;2023-08-30T11:58:44;10.70;;;3.30;;
78346;SDS011;67803;41.330;69.282;2023-08-30T12:01:15;11.15;;;3.40;;
78346;SDS011;67803;41.330;69.282;2023-08-30T12:03:46;13.95;;;2.90;;
78346;SDS011;67803;41.330;69.282;2023-08-30T12:08:57;9.95;;;3.80;;
78346;SDS011;67803;41.330;69.282;2023-08-30T12:11:28;13.63;;;3.28;;
78346;SDS011;67803;41.330;69.282;2023-08-30T12:14:04;15.93;;;4.00;;
78346;SDS011;67803;41.330;69.282;2023-08-30T12:16:35;8.35;;;3.55;;
78346;SDS011;67803;41.330;69.282;2023-08-30T12:19:10;15.93;;;3.75;;
78346;SDS011;67803;41.330;69.282;2023-08-30T12:21:46;19.65;;;3.97;;
78346;SDS011;67803;41.330;69.282;2023-08-30T12:24:18;10.27;;;3.42;;
78346;SDS011;67803;41.330;69.282;2023-08-30T12:26:49;9.52;;;4.05;;
78346;SDS011;67803;41.330;69.282;2023-08-30T12:29:20;7.82;;;3.10;;
78346;SDS011;67803;41.330;69.282;2023-08-30T12:31:52;8.57;;;3.60;;
78346;SDS011;67803;41.330;69.282;2023-08-30T12:34:23;9.88;;;2.97;;
78346;SDS011;67803;41.330;69.282;2023-08-30T12:36:54;9.52;;;3.20;;
78346;SDS011;67803;41.330;69.282;2023-08-30T12:39:26;7.40;;;3.17;;
78346;SDS011;67803;41.330;69.282;2023-08-30T12:41:59;8.27;;;3.28;;
78346;SDS011;67803;41.330;69.282;2023-08-30T12:44:31;9.60;;;3.45;;
78346;SDS011;67803;41.330;69.282;2023-08-30T12:47:02;9.20;;;3.30;;
78346;SDS011;67803;41.330;69.282;2023-08-30T12:49:34;9.43;;;3.80;;
78346;SDS011;67803;41.330;69.282;2023-08-30T12:52:06;10.85;;;3.28;;
78346;SDS011;67803;41.330;69.282;2023-08-30T12:54:37;9.00;;;3.70;;
78346;SDS011;67803;41.330;69.282;2023-08-30T12:57:08;10.27;;;4.00;;
78346;SDS011;67803;41.330;69.282;2023-08-30T12:59:39;12.18;;;4.35;;
78346;SDS011;67803;41.330;69.282;2023-08-30T13:02:10;10.48;;;4.65;;
78346;SDS011;67803;41.330;69.282;2023-08-30T13:04:43;12.45;;;3.88;;
78346;SDS011;67803;41.330;69.282;2023-08-30T13:07:17;11.40;;;4.70;;
78346;SDS011;67803;41.330;69.282;2023-08-30T13:09:48;10.82;;;3.97;;
78346;SDS011;67803;41.330;69.282;2023-08-30T13:12:19;10.68;;;4.22;;
78346;SDS011;67803;41.330;69.282;2023-08-30T13:14:50;16.02;;;5.88;;
78346;SDS011;67803;41.330;69.282;2023-08-30T13:17:21;11.75;;;3.80;;
78346;SDS011;67803;41.330;69.282;2023-08-30T13:19:52;12.30;;;5.13;;
78346;SDS011;67803;41.330;69.282;2023-08-30T13:22:26;12.35;;;5.07;;
78346;SDS011;67803;41.330;69.282;2023-08-30T13:24:57;9.98;;;4.22;;
78346;SDS011;67803;41.330;69.282;2023-08-30T13:27:28;15.00;;;4.93;;
78346;SDS011;67803;41.330;69.282;2023-08-30T13:29:59;15.13;;;5.40;;
78346;SDS011;67803;41.330;69.282;2023-08-30T13:32:33;13.60;;;4.35;;
78346;SDS011;67803;41.330;69.282;2023-08-30T13:35:04;13.05;;;4.00;;
78346;SDS011;67803;41.330;69.282;2023-08-30T13:37:35;12.85;;;4.40;;
78346;SDS011;67803;41.330;69.282;2023-08-30T13:40:06;9.98;;;4.32;;
78346;SDS011;67803;41.330;69.282;2023-08-30T13:42:37;10.00;;;4.20;;
78346;SDS011;67803;41.330;69.282;2023-08-30T13:45:10;16.92;;;4.65;;
78346;SDS011;67803;41.330;69.282;2023-08-30T13:47:42;10.63;;;5.03;;
78346;SDS011;67803;41.330;69.282;2023-08-30T13:50:13;15.90;;;5.35;;
78346;SDS011;67803;41.330;69.282;2023-08-30T13:52:44;15.77;;;5.40;;
78346;SDS011;67803;41.330;69.282;2023-08-30T13:55:15;11.38;;;5.53;;
78346;SDS011;67803;41.330;69.282;2023-08-30T13:57:46;13.23;;;5.15;;
78346;SDS011;67803;41.330;69.282;2023-08-30T14:00:18;16.48;;;4.80;;
78346;SDS011;67803;41.330;69.282;2023-08-30T14:02:50;14.13;;;5.28;;
78346;SDS011;67803;41.330;69.282;2023-08-30T14:05:25;14.82;;;5.35;;
78346;SDS011;67803;41.330;69.282;2023-08-30T14:07:56;19.77;;;5.70;;
78346;SDS011;67803;41.330;69.282;2023-08-30T14:10:30;12.55;;;5.53;;
78346;SDS011;67803;41.330;69.282;2023-08-30T14:13:04;23.58;;;6.28;;
78346;SDS011;67803;41.330;69.282;2023-08-30T14:15:35;11.23;;;5.18;;
78346;SDS011;67803;41.330;69.282;2023-08-30T14:18:08;18.83;;;5.32;;
78346;SDS011;67803;41.330;69.282;2023-08-30T14:20:47;23.45;;;5.43;;
78346;SDS011;67803;41.330;69.282;2023-08-30T14:23:20;17.35;;;5.63;;
78346;SDS011;67803;41.330;69.282;2023-08-30T14:25:58;15.55;;;6.00;;
78346;SDS011;67803;41.330;69.282;2023-08-30T14:28:29;16.52;;;7.32;;
78346;SDS011;67803;41.330;69.282;2023-08-30T14:31:01;19.67;;;5.95;;
78346;SDS011;67803;41.330;69.282;2023-08-30T14:33:35;14.15;;;6.72;;
78346;SDS011;67803;41.330;69.282;2023-08-30T14:36:09;20.27;;;7.28;;
78346;SDS011;67803;41.330;69.282;2023-08-30T14:38:40;17.10;;;6.53;;
78346;SDS011;67803;41.330;69.282;2023-08-30T14:41:11;18.80;;;7.70;;
78346;SDS011;67803;41.330;69.282;2023-08-30T14:43:44;18.33;;;7.55;;
78346;SDS011;67803;41.330;69.282;2023-08-30T14:46:17;18.00;;;7.53;;
78346;SDS011;67803;41.330;69.282;2023-08-30T14:48:50;15.93;;;6.85;;
78346;SDS011;67803;41.330;69.282;2023-08-30T14:51:22;23.85;;;7.18;;
78346;SDS011;67803;41.330;69.282;2023-08-30T14:53:53;21.13;;;7.43;;
78346;SDS011;67803;41.330;69.282;2023-08-30T14:56:27;17.02;;;6.63;;
78346;SDS011;67803;41.330;69.282;2023-08-30T14:58:58;22.70;;;6.95;;
78346;SDS011;67803;41.330;69.282;2023-08-30T15:01:30;19.20;;;5.70;;
78346;SDS011;67803;41.330;69.282;2023-08-30T15:04:04;19.45;;;6.03;;